18:41
Airports
History
Links
Donate
Help keep this website running!
PayPal
Bitcoin
This page is community maintained. The information is intended for PC simulator navigation or reference.
Always use approved charts for navigation.
SNUC
Acu
Acu (SNUC)
Assu, Rio Grande do Norte, Brazil (59650)
(C)
Lat/Lng:5° 35' 42.18" S / 36° 57' 39.29" W
-5.595049 / -36.960914
Elevation:394'ft / 120mMSL
ID / ICAO:SNUC
Runways:1
Longest:11-29
Asphalt 1,416m / 4,646ft
Controlled:Yes
Nearby Weather17:00 GMT 2018-02-21
Nearby weather at SBMS, DIX SEPT ROSADO located 38.8 nautical miles from SNUC
Altimeter: 29.77
Visibility: 6.2 statute miles
Wind: 7 knots (from 040°)
Temp: 36°c / 97°f
Humidity: 44.5%

METAR: SBMS 211700Z 04007KT 9999 SCT030 36/22 Q1008

(Powered by phpweather)
Runway 11 / 29
Dimensions:1416.2 x 31.1m 4646' x 102'ft
Surface:Asphalt
Runway 11 [A]Runway 29 [B]
Heading:090°TH 270°TH
Lat:
Lng:
5° 35' 41.92"S
36° 58' 2.41"W
5° 35' 42.43"S
36° 57' 16.17"W
User Notes and Comments
5° 35' 42.18" S / 36° 57' 39.29" W
Distance To
Airport ID:
Nearby Airports
(C) DIX SEPT ROSADO 38.8 NM
SBMS ( WX ) NW 314°
(U) MAISA 55.0 NM
SNOO NW 316°
(C) Currais Novos 55.5 NM
SNKN SSE 148°
(C) Caico 58.9 NM
SNKK S 187°
(C) Jardim Do Serido 67.2 NM
SNJS SSE 166°
(C) Jardim De Angicos 69.1 NM
SNJA E 92°
(U) CATOLE DA ROCHA 76.1 NM
SIBU SW 225°
VFR Chart
Flight Planning at SkyVector.com